Palmdale, CA

2:27 AM PDT on May 26, 2017 (GMT -0700)
Palmdale Af Plant 42 | | Change Station
Active Advisory: Wind Advisory

Elev 2543 ft 34.63 °N, 118.08 °W | Updated 34 minutes ago

Clear
Clear
53 °F
Feels Like 53 °F
N
28
Wind Variable Wind from SW

Today
High -- | Low -- °F
--% Chance of Precip.
Yesterday
High -- | Low -- °F
Precip. -- in
Pressure 29.76 in
Visibility 10.0 miles
Clouds Clear
Dew Point 44 °F
Humidity 71%
Rainfall 0.00 in
Snow Depth Not available.
5:42 AM 7:56 PM
New Moon, 1% visible
METAR KPMD 260853Z AUTO 23024KT 10SM CLR 12/07 A2982 RMK AO2 PK WND 22029/0846 SLP078 60000 T01170067 56001
Pressure 29.76 in
Visibility 10.0 miles
Clouds Clear
Dew Point 44 °F
Humidity 71%
Rainfall 0.00 in
Snow Depth Not available.
5:42 AM 7:56 PM
New Moon, 1% visible
METAR KPMD 260853Z AUTO 23024KT 10SM CLR 12/07 A2982 RMK AO2 PK WND 22029/0846 SLP078 60000 T01170067 56001

Get Your Daily Forecast Email!

Thanks for signing up!

Be on the lookout for a verification email in your inbox.

You'll start receiving severe weather alerts in your inbox..

×

10-Day Weather Forecast

Almanac

Astronomy

May. 26, 2017 Rise Set
Actual Time
Civil Twilight
Nautical Twilight
Astronomical Twilight
Moon
Length of Visible Light
Length of Day
Tomorrow will be .
, % of the Moon is Illuminated

Today's Extremes

State Highs State Lows

Community

WunderPhotos

Category 6

Welcome to Category 6. This is the collective home for Weather Underground's featured writeups by Dr. Jeff Masters (right), Bob Henson (left), Chris Burt, and other regular contributors.

Nearby

Air Quality

  Air Quality AQ Index Pollutant
Not available.

Snow Depth

Station Depth Elevation

Earthquake Activity

City Distance Mag. Time & Date
Minimum magnitude displayed is 2.5.

Coastal Water Temperatures

Place Temperature

Stations

Nearby Weather Stations

Station Location Temp. Windchill Dew Point Humidity Wind Precip. Elev Updated Type
                   

Watches & Warnings

Wind Advisory
Issued: 8:42 PM PDT May. 25, 2017 – National Weather Service

... Wind Advisory now in effect until 9 am PDT Friday...

* winds and timing... southwest to west winds 20 to 35 mph with
gusts to 50 mph will persist through at least Friday morning.
Strongest sustained winds and gusts will occur across the
western portion of the valley. Local gusts to 60 mph will likely
occur in the foothills around Lake Palmdale.

* Impacts... winds may make driving high profile vehicles
difficult as well as producing locally reduced visibilities in
blowing dust. This includes highways 14 and 138, especially
near the foothills.

Precautionary/preparedness actions...

When driving, use extra caution. Be prepared for sudden gusty
cross winds.



Hall